sensor_id;sensor_type;location;lat;lon;timestamp;P1;durP1;ratioP1;P2;durP2;ratioP2
10094;SDS011;5086;50.830;7.102;2023-04-19T00:00:09;5.45;;;3.47;;
10094;SDS011;5086;50.830;7.102;2023-04-19T00:02:38;6.55;;;3.35;;
10094;SDS011;5086;50.830;7.102;2023-04-19T00:05:06;5.60;;;3.50;;
10094;SDS011;5086;50.830;7.102;2023-04-19T00:07:34;6.68;;;3.20;;
10094;SDS011;5086;50.830;7.102;2023-04-19T00:10:02;8.25;;;2.95;;
10094;SDS011;5086;50.830;7.102;2023-04-19T00:12:29;4.35;;;2.85;;
10094;SDS011;5086;50.830;7.102;2023-04-19T00:14:56;6.32;;;3.00;;
10094;SDS011;5086;50.830;7.102;2023-04-19T00:17:23;4.47;;;3.03;;
10094;SDS011;5086;50.830;7.102;2023-04-19T00:19:49;4.35;;;2.85;;
10094;SDS011;5086;50.830;7.102;2023-04-19T00:22:16;7.15;;;3.85;;
10094;SDS011;5086;50.830;7.102;2023-04-19T00:24:46;5.38;;;3.30;;
10094;SDS011;5086;50.830;7.102;2023-04-19T00:27:14;4.70;;;3.30;;
10094;SDS011;5086;50.830;7.102;2023-04-19T00:29:42;4.78;;;3.42;;
10094;SDS011;5086;50.830;7.102;2023-04-19T00:32:08;7.43;;;3.40;;
10094;SDS011;5086;50.830;7.102;2023-04-19T00:34:35;4.32;;;2.88;;
10094;SDS011;5086;50.830;7.102;2023-04-19T00:37:02;5.50;;;3.47;;
10094;SDS011;5086;50.830;7.102;2023-04-19T00:39:29;6.63;;;3.50;;
10094;SDS011;5086;50.830;7.102;2023-04-19T00:41:56;5.00;;;3.30;;
10094;SDS011;5086;50.830;7.102;2023-04-19T00:44:25;5.20;;;3.20;;
10094;SDS011;5086;50.830;7.102;2023-04-19T00:46:52;4.40;;;2.80;;
10094;SDS011;5086;50.830;7.102;2023-04-19T00:49:19;7.18;;;3.55;;
10094;SDS011;5086;50.830;7.102;2023-04-19T00:51:48;6.07;;;2.92;;
10094;SDS011;5086;50.830;7.102;2023-04-19T00:54:15;5.18;;;2.67;;
10094;SDS011;5086;50.830;7.102;2023-04-19T00:56:43;6.85;;;3.30;;
10094;SDS011;5086;50.830;7.102;2023-04-19T00:59:11;4.45;;;2.75;;
10094;SDS011;5086;50.830;7.102;2023-04-19T01:01:41;4.40;;;3.30;;
10094;SDS011;5086;50.830;7.102;2023-04-19T01:04:08;5.45;;;3.30;;
10094;SDS011;5086;50.830;7.102;2023-04-19T01:06:35;5.20;;;3.30;;
10094;SDS011;5086;50.830;7.102;2023-04-19T01:09:02;5.78;;;3.10;;
10094;SDS011;5086;50.830;7.102;2023-04-19T01:11:29;5.97;;;3.55;;
10094;SDS011;5086;50.830;7.102;2023-04-19T01:13:56;3.85;;;2.80;;
10094;SDS011;5086;50.830;7.102;2023-04-19T01:16:23;5.03;;;3.20;;
10094;SDS011;5086;50.830;7.102;2023-04-19T01:18:53;6.38;;;3.78;;
10094;SDS011;5086;50.830;7.102;2023-04-19T01:21:20;7.60;;;3.45;;
10094;SDS011;5086;50.830;7.102;2023-04-19T01:23:48;8.18;;;4.30;;
10094;SDS011;5086;50.830;7.102;2023-04-19T01:26:17;8.13;;;3.20;;
10094;SDS011;5086;50.830;7.102;2023-04-19T01:28:46;5.97;;;3.80;;
10094;SDS011;5086;50.830;7.102;2023-04-19T01:31:13;6.57;;;3.72;;
10094;SDS011;5086;50.830;7.102;2023-04-19T01:33:40;5.95;;;3.63;;
10094;SDS011;5086;50.830;7.102;2023-04-19T01:36:07;5.13;;;3.15;;
10094;SDS011;5086;50.830;7.102;2023-04-19T01:38:34;5.93;;;3.80;;
10094;SDS011;5086;50.830;7.102;2023-04-19T01:41:02;5.50;;;3.50;;
10094;SDS011;5086;50.830;7.102;2023-04-19T01:43:29;7.15;;;3.67;;
10094;SDS011;5086;50.830;7.102;2023-04-19T01:45:56;6.95;;;3.47;;
10094;SDS011;5086;50.830;7.102;2023-04-19T01:48:23;5.40;;;3.28;;
10094;SDS011;5086;50.830;7.102;2023-04-19T01:50:49;5.07;;;3.20;;
10094;SDS011;5086;50.830;7.102;2023-04-19T01:53:16;6.25;;;4.20;;
10094;SDS011;5086;50.830;7.102;2023-04-19T01:55:43;6.78;;;3.83;;
10094;SDS011;5086;50.830;7.102;2023-04-19T01:58:12;8.82;;;3.83;;
10094;SDS011;5086;50.830;7.102;2023-04-19T02:00:38;10.85;;;4.65;;
10094;SDS011;5086;50.830;7.102;2023-04-19T02:03:05;9.77;;;5.30;;
10094;SDS011;5086;50.830;7.102;2023-04-19T02:05:32;4.75;;;3.75;;
10094;SDS011;5086;50.830;7.102;2023-04-19T02:07:59;9.10;;;4.20;;
10094;SDS011;5086;50.830;7.102;2023-04-19T02:10:26;6.43;;;3.88;;
10094;SDS011;5086;50.830;7.102;2023-04-19T02:12:53;8.75;;;4.30;;
10094;SDS011;5086;50.830;7.102;2023-04-19T02:15:21;8.95;;;4.47;;
10094;SDS011;5086;50.830;7.102;2023-04-19T02:17:48;6.47;;;3.72;;
10094;SDS011;5086;50.830;7.102;2023-04-19T02:20:15;8.80;;;4.60;;
10094;SDS011;5086;50.830;7.102;2023-04-19T02:22:42;6.53;;;4.00;;
10094;SDS011;5086;50.830;7.102;2023-04-19T02:25:09;4.20;;;3.28;;
10094;SDS011;5086;50.830;7.102;2023-04-19T02:27:35;6.30;;;4.40;;
10094;SDS011;5086;50.830;7.102;2023-04-19T02:30:03;8.00;;;3.42;;
10094;SDS011;5086;50.830;7.102;2023-04-19T02:32:31;9.13;;;3.75;;
10094;SDS011;5086;50.830;7.102;2023-04-19T02:34:58;8.38;;;4.28;;
10094;SDS011;5086;50.830;7.102;2023-04-19T02:37:25;7.47;;;3.75;;
10094;SDS011;5086;50.830;7.102;2023-04-19T02:39:52;8.10;;;3.75;;
10094;SDS011;5086;50.830;7.102;2023-04-19T02:42:19;7.00;;;3.95;;
10094;SDS011;5086;50.830;7.102;2023-04-19T02:44:46;5.45;;;3.50;;
10094;SDS011;5086;50.830;7.102;2023-04-19T02:47:12;13.27;;;5.20;;
10094;SDS011;5086;50.830;7.102;2023-04-19T02:49:41;9.25;;;4.30;;
10094;SDS011;5086;50.830;7.102;2023-04-19T02:52:07;6.72;;;4.00;;
10094;SDS011;5086;50.830;7.102;2023-04-19T02:54:34;9.30;;;4.03;;
10094;SDS011;5086;50.830;7.102;2023-04-19T02:57:01;8.45;;;4.53;;
10094;SDS011;5086;50.830;7.102;2023-04-19T02:59:28;8.95;;;4.70;;
10094;SDS011;5086;50.830;7.102;2023-04-19T03:01:55;12.18;;;4.25;;
10094;SDS011;5086;50.830;7.102;2023-04-19T03:04:22;9.60;;;4.20;;
10094;SDS011;5086;50.830;7.102;2023-04-19T03:06:50;10.15;;;4.65;;
10094;SDS011;5086;50.830;7.102;2023-04-19T03:09:17;8.60;;;3.92;;
10094;SDS011;5086;50.830;7.102;2023-04-19T03:11:44;7.07;;;3.95;;
10094;SDS011;5086;50.830;7.102;2023-04-19T03:14:11;8.35;;;4.75;;
10094;SDS011;5086;50.830;7.102;2023-04-19T03:16:38;7.82;;;4.10;;
10094;SDS011;5086;50.830;7.102;2023-04-19T03:19:05;8.65;;;4.40;;
10094;SDS011;5086;50.830;7.102;2023-04-19T03:21:32;7.15;;;4.03;;
10094;SDS011;5086;50.830;7.102;2023-04-19T03:24:00;7.22;;;4.20;;
10094;SDS011;5086;50.830;7.102;2023-04-19T03:26:27;10.63;;;4.53;;
10094;SDS011;5086;50.830;7.102;2023-04-19T03:28:54;6.00;;;3.85;;
10094;SDS011;5086;50.830;7.102;2023-04-19T03:31:21;9.77;;;5.18;;
10094;SDS011;5086;50.830;7.102;2023-04-19T03:33:48;8.35;;;4.13;;
10094;SDS011;5086;50.830;7.102;2023-04-19T03:36:15;10.20;;;4.88;;
10094;SDS011;5086;50.830;7.102;2023-04-19T03:38:41;7.55;;;4.65;;
10094;SDS011;5086;50.830;7.102;2023-04-19T03:41:18;9.93;;;5.00;;
10094;SDS011;5086;50.830;7.102;2023-04-19T03:43:45;10.13;;;4.53;;
10094;SDS011;5086;50.830;7.102;2023-04-19T03:46:11;12.23;;;5.07;;
10094;SDS011;5086;50.830;7.102;2023-04-19T03:48:38;10.38;;;4.60;;
10094;SDS011;5086;50.830;7.102;2023-04-19T03:51:05;9.23;;;4.50;;
10094;SDS011;5086;50.830;7.102;2023-04-19T03:53:32;10.00;;;4.80;;
10094;SDS011;5086;50.830;7.102;2023-04-19T03:55:59;5.63;;;3.70;;
10094;SDS011;5086;50.830;7.102;2023-04-19T03:58:28;8.70;;;4.88;;
10094;SDS011;5086;50.830;7.102;2023-04-19T04:00:54;8.70;;;4.50;;
10094;SDS011;5086;50.830;7.102;2023-04-19T04:03:21;9.88;;;4.60;;
10094;SDS011;5086;50.830;7.102;2023-04-19T04:05:48;9.25;;;4.25;;
10094;SDS011;5086;50.830;7.102;2023-04-19T04:08:15;6.75;;;3.95;;
10094;SDS011;5086;50.830;7.102;2023-04-19T04:10:42;9.38;;;4.65;;
10094;SDS011;5086;50.830;7.102;2023-04-19T04:13:09;12.35;;;4.40;;
10094;SDS011;5086;50.830;7.102;2023-04-19T04:15:37;8.50;;;4.70;;
10094;SDS011;5086;50.830;7.102;2023-04-19T04:18:04;9.20;;;4.55;;
10094;SDS011;5086;50.830;7.102;2023-04-19T04:20:31;9.02;;;4.68;;
10094;SDS011;5086;50.830;7.102;2023-04-19T04:22:58;9.90;;;5.07;;
10094;SDS011;5086;50.830;7.102;2023-04-19T04:25:24;9.25;;;4.65;;
10094;SDS011;5086;50.830;7.102;2023-04-19T04:27:52;10.70;;;5.25;;
10094;SDS011;5086;50.830;7.102;2023-04-19T04:30:20;10.68;;;5.30;;
10094;SDS011;5086;50.830;7.102;2023-04-19T04:32:48;9.38;;;4.63;;
10094;SDS011;5086;50.830;7.102;2023-04-19T04:35:16;9.88;;;4.47;;
10094;SDS011;5086;50.830;7.102;2023-04-19T04:37:43;10.15;;;5.30;;
10094;SDS011;5086;50.830;7.102;2023-04-19T04:40:10;6.78;;;4.30;;
10094;SDS011;5086;50.830;7.102;2023-04-19T04:42:37;10.77;;;5.72;;
10094;SDS011;5086;50.830;7.102;2023-04-19T04:45:05;10.73;;;4.90;;
10094;SDS011;5086;50.830;7.102;2023-04-19T04:47:34;7.72;;;4.75;;
10094;SDS011;5086;50.830;7.102;2023-04-19T04:50:03;10.75;;;5.35;;
10094;SDS011;5086;50.830;7.102;2023-04-19T04:52:31;7.55;;;4.78;;
10094;SDS011;5086;50.830;7.102;2023-04-19T04:54:58;8.85;;;5.03;;
10094;SDS011;5086;50.830;7.102;2023-04-19T04:57:25;14.02;;;5.10;;
10094;SDS011;5086;50.830;7.102;2023-04-19T04:59:52;8.40;;;5.30;;
10094;SDS011;5086;50.830;7.102;2023-04-19T05:02:20;9.68;;;4.35;;
10094;SDS011;5086;50.830;7.102;2023-04-19T05:04:47;11.80;;;5.60;;
10094;SDS011;5086;50.830;7.102;2023-04-19T05:07:16;8.80;;;4.57;;
10094;SDS011;5086;50.830;7.102;2023-04-19T05:09:43;9.20;;;5.03;;
10094;SDS011;5086;50.830;7.102;2023-04-19T05:12:09;9.70;;;5.50;;
10094;SDS011;5086;50.830;7.102;2023-04-19T05:14:36;8.63;;;4.95;;
10094;SDS011;5086;50.830;7.102;2023-04-19T05:17:03;9.57;;;5.05;;
10094;SDS011;5086;50.830;7.102;2023-04-19T05:19:30;11.77;;;6.00;;
10094;SDS011;5086;50.830;7.102;2023-04-19T05:21:57;8.52;;;4.78;;
10094;SDS011;5086;50.830;7.102;2023-04-19T05:24:25;13.13;;;5.47;;
10094;SDS011;5086;50.830;7.102;2023-04-19T05:26:52;8.45;;;4.80;;
10094;SDS011;5086;50.830;7.102;2023-04-19T05:29:19;9.13;;;4.65;;
10094;SDS011;5086;50.830;7.102;2023-04-19T05:31:46;11.38;;;5.25;;
10094;SDS011;5086;50.830;7.102;2023-04-19T05:34:13;9.07;;;5.32;;
10094;SDS011;5086;50.830;7.102;2023-04-19T05:36:40;8.10;;;4.70;;
10094;SDS011;5086;50.830;7.102;2023-04-19T05:39:06;10.48;;;5.00;;
10094;SDS011;5086;50.830;7.102;2023-04-19T05:41:35;10.73;;;5.43;;
10094;SDS011;5086;50.830;7.102;2023-04-19T05:44:02;11.15;;;5.60;;
10094;SDS011;5086;50.830;7.102;2023-04-19T05:46:29;13.27;;;5.60;;
10094;SDS011;5086;50.830;7.102;2023-04-19T05:48:56;12.13;;;5.35;;
10094;SDS011;5086;50.830;7.102;2023-04-19T05:51:22;13.27;;;5.78;;
10094;SDS011;5086;50.830;7.102;2023-04-19T05:53:49;11.10;;;5.60;;
10094;SDS011;5086;50.830;7.102;2023-04-19T05:56:17;12.35;;;4.95;;
10094;SDS011;5086;50.830;7.102;2023-04-19T05:58:45;11.48;;;5.13;;
10094;SDS011;5086;50.830;7.102;2023-04-19T06:01:12;15.88;;;6.93;;
10094;SDS011;5086;50.830;7.102;2023-04-19T06:03:39;9.63;;;5.68;;
10094;SDS011;5086;50.830;7.102;2023-04-19T06:06:06;14.35;;;6.97;;
10094;SDS011;5086;50.830;7.102;2023-04-19T06:08:33;12.38;;;6.22;;
10094;SDS011;5086;50.830;7.102;2023-04-19T06:11:00;14.38;;;6.57;;
10094;SDS011;5086;50.830;7.102;2023-04-19T06:13:27;11.05;;;6.35;;
10094;SDS011;5086;50.830;7.102;2023-04-19T06:15:55;10.90;;;6.07;;
10094;SDS011;5086;50.830;7.102;2023-04-19T06:18:22;10.55;;;6.15;;
10094;SDS011;5086;50.830;7.102;2023-04-19T06:20:50;14.40;;;6.40;;
10094;SDS011;5086;50.830;7.102;2023-04-19T06:23:18;13.43;;;6.85;;
10094;SDS011;5086;50.830;7.102;2023-04-19T06:25:45;12.60;;;5.97;;
10094;SDS011;5086;50.830;7.102;2023-04-19T06:28:12;11.88;;;6.85;;
10094;SDS011;5086;50.830;7.102;2023-04-19T06:30:39;14.40;;;7.25;;
10094;SDS011;5086;50.830;7.102;2023-04-19T06:33:08;15.55;;;7.43;;
10094;SDS011;5086;50.830;7.102;2023-04-19T06:35:35;12.50;;;6.30;;
10094;SDS011;5086;50.830;7.102;2023-04-19T06:38:02;10.80;;;6.13;;
10094;SDS011;5086;50.830;7.102;2023-04-19T06:40:29;15.80;;;7.22;;
10094;SDS011;5086;50.830;7.102;2023-04-19T06:42:58;20.27;;;7.03;;
10094;SDS011;5086;50.830;7.102;2023-04-19T06:45:25;14.00;;;6.18;;
10094;SDS011;5086;50.830;7.102;2023-04-19T06:47:52;14.57;;;7.05;;
10094;SDS011;5086;50.830;7.102;2023-04-19T06:50:21;13.10;;;6.30;;
10094;SDS011;5086;50.830;7.102;2023-04-19T06:52:48;12.05;;;6.30;;
10094;SDS011;5086;50.830;7.102;2023-04-19T06:55:16;14.98;;;7.18;;
10094;SDS011;5086;50.830;7.102;2023-04-19T06:57:43;14.85;;;6.65;;
10094;SDS011;5086;50.830;7.102;2023-04-19T07:00:10;16.65;;;7.50;;
10094;SDS011;5086;50.830;7.102;2023-04-19T07:02:38;11.80;;;6.35;;
10094;SDS011;5086;50.830;7.102;2023-04-19T07:05:06;12.98;;;6.80;;
10094;SDS011;5086;50.830;7.102;2023-04-19T07:07:34;10.15;;;6.03;;
10094;SDS011;5086;50.830;7.102;2023-04-19T07:10:02;13.82;;;6.82;;
10094;SDS011;5086;50.830;7.102;2023-04-19T07:12:29;18.73;;;7.25;;
10094;SDS011;5086;50.830;7.102;2023-04-19T07:14:56;12.95;;;7.05;;
10094;SDS011;5086;50.830;7.102;2023-04-19T07:17:23;10.00;;;5.45;;
10094;SDS011;5086;50.830;7.102;2023-04-19T07:19:50;10.95;;;5.38;;
10094;SDS011;5086;50.830;7.102;2023-04-19T07:22:16;11.60;;;5.95;;
10094;SDS011;5086;50.830;7.102;2023-04-19T07:24:45;10.60;;;5.50;;
10094;SDS011;5086;50.830;7.102;2023-04-19T07:27:12;12.30;;;5.63;;
10094;SDS011;5086;50.830;7.102;2023-04-19T07:29:40;7.18;;;4.57;;
10094;SDS011;5086;50.830;7.102;2023-04-19T07:32:07;15.00;;;5.30;;
10094;SDS011;5086;50.830;7.102;2023-04-19T07:34:34;8.45;;;4.90;;
10094;SDS011;5086;50.830;7.102;2023-04-19T07:37:02;9.65;;;4.90;;
10094;SDS011;5086;50.830;7.102;2023-04-19T07:39:29;9.30;;;5.00;;
10094;SDS011;5086;50.830;7.102;2023-04-19T07:41:57;10.45;;;5.57;;
10094;SDS011;5086;50.830;7.102;2023-04-19T07:44:25;11.65;;;5.03;;
10094;SDS011;5086;50.830;7.102;2023-04-19T07:46:52;8.63;;;4.55;;
10094;SDS011;5086;50.830;7.102;2023-04-19T07:49:19;8.07;;;4.53;;
10094;SDS011;5086;50.830;7.102;2023-04-19T07:51:46;11.07;;;4.97;;
10094;SDS011;5086;50.830;7.102;2023-04-19T07:54:13;9.25;;;4.85;;
10094;SDS011;5086;50.830;7.102;2023-04-19T07:56:41;8.35;;;4.30;;
10094;SDS011;5086;50.830;7.102;2023-04-19T07:59:09;9.40;;;4.72;;
10094;SDS011;5086;50.830;7.102;2023-04-19T08:01:36;7.50;;;4.38;;
10094;SDS011;5086;50.830;7.102;2023-04-19T08:04:04;9.50;;;4.03;;
10094;SDS011;5086;50.830;7.102;2023-04-19T08:06:31;8.48;;;4.45;;
10094;SDS011;5086;50.830;7.102;2023-04-19T08:08:58;7.32;;;4.07;;
10094;SDS011;5086;50.830;7.102;2023-04-19T08:11:25;7.03;;;3.83;;
10094;SDS011;5086;50.830;7.102;2023-04-19T08:13:52;8.55;;;4.18;;
10094;SDS011;5086;50.830;7.102;2023-04-19T08:16:20;7.75;;;4.70;;
10094;SDS011;5086;50.830;7.102;2023-04-19T08:18:47;10.45;;;5.03;;
10094;SDS011;5086;50.830;7.102;2023-04-19T08:21:16;5.75;;;3.72;;
10094;SDS011;5086;50.830;7.102;2023-04-19T08:23:42;7.40;;;3.50;;
10094;SDS011;5086;50.830;7.102;2023-04-19T08:26:09;8.55;;;4.32;;
10094;SDS011;5086;50.830;7.102;2023-04-19T08:28:36;6.25;;;4.15;;
10094;SDS011;5086;50.830;7.102;2023-04-19T08:31:04;8.75;;;3.80;;
10094;SDS011;5086;50.830;7.102;2023-04-19T08:33:33;6.53;;;3.45;;
10094;SDS011;5086;50.830;7.102;2023-04-19T08:36:00;9.65;;;4.18;;
10094;SDS011;5086;50.830;7.102;2023-04-19T08:38:26;6.97;;;4.15;;
10094;SDS011;5086;50.830;7.102;2023-04-19T08:40:53;6.88;;;3.80;;
10094;SDS011;5086;50.830;7.102;2023-04-19T08:43:20;6.40;;;4.10;;
10094;SDS011;5086;50.830;7.102;2023-04-19T08:45:52;5.95;;;3.35;;
10094;SDS011;5086;50.830;7.102;2023-04-19T08:48:20;10.20;;;3.92;;
10094;SDS011;5086;50.830;7.102;2023-04-19T08:50:49;6.75;;;3.90;;
10094;SDS011;5086;50.830;7.102;2023-04-19T08:53:17;6.50;;;3.55;;
10094;SDS011;5086;50.830;7.102;2023-04-19T08:55:44;7.82;;;3.85;;
10094;SDS011;5086;50.830;7.102;2023-04-19T08:58:12;7.78;;;4.40;;
10094;SDS011;5086;50.830;7.102;2023-04-19T09:00:39;6.53;;;3.70;;
10094;SDS011;5086;50.830;7.102;2023-04-19T09:03:06;7.72;;;4.07;;
10094;SDS011;5086;50.830;7.102;2023-04-19T09:05:33;6.57;;;3.28;;
10094;SDS011;5086;50.830;7.102;2023-04-19T09:10:53;7.90;;;3.50;;
10094;SDS011;5086;50.830;7.102;2023-04-19T09:13:21;5.18;;;3.40;;
10094;SDS011;5086;50.830;7.102;2023-04-19T09:15:48;6.90;;;4.10;;
10094;SDS011;5086;50.830;7.102;2023-04-19T09:18:17;5.88;;;3.20;;
10094;SDS011;5086;50.830;7.102;2023-04-19T09:20:44;6.38;;;3.70;;
10094;SDS011;5086;50.830;7.102;2023-04-19T09:23:12;10.57;;;3.78;;
10094;SDS011;5086;50.830;7.102;2023-04-19T09:25:49;5.70;;;3.60;;
10094;SDS011;5086;50.830;7.102;2023-04-19T09:28:17;5.50;;;3.40;;
10094;SDS011;5086;50.830;7.102;2023-04-19T09:30:44;4.35;;;3.00;;
10094;SDS011;5086;50.830;7.102;2023-04-19T09:33:12;9.43;;;3.85;;
10094;SDS011;5086;50.830;7.102;2023-04-19T09:35:39;9.38;;;3.30;;
10094;SDS011;5086;50.830;7.102;2023-04-19T09:38:07;5.95;;;2.65;;
10094;SDS011;5086;50.830;7.102;2023-04-19T09:40:35;8.48;;;3.40;;
10094;SDS011;5086;50.830;7.102;2023-04-19T09:43:07;6.07;;;3.55;;
10094;SDS011;5086;50.830;7.102;2023-04-19T09:45:40;6.22;;;3.40;;
10094;SDS011;5086;50.830;7.102;2023-04-19T09:48:08;4.95;;;3.42;;
10094;SDS011;5086;50.830;7.102;2023-04-19T09:50:36;6.07;;;4.00;;
10094;SDS011;5086;50.830;7.102;2023-04-19T09:53:16;6.68;;;3.40;;
10094;SDS011;5086;50.830;7.102;2023-04-19T09:55:43;18.75;;;3.75;;
10094;SDS011;5086;50.830;7.102;2023-04-19T09:58:12;6.60;;;3.90;;
10094;SDS011;5086;50.830;7.102;2023-04-19T10:00:39;6.10;;;3.30;;
10094;SDS011;5086;50.830;7.102;2023-04-19T10:03:07;7.18;;;3.45;;
10094;SDS011;5086;50.830;7.102;2023-04-19T10:05:35;3.50;;;2.85;;
10094;SDS011;5086;50.830;7.102;2023-04-19T10:08:04;6.65;;;2.65;;
10094;SDS011;5086;50.830;7.102;2023-04-19T10:10:33;4.60;;;2.97;;
10094;SDS011;5086;50.830;7.102;2023-04-19T10:13:01;6.60;;;3.00;;
10094;SDS011;5086;50.830;7.102;2023-04-19T10:15:31;5.40;;;2.65;;
10094;SDS011;5086;50.830;7.102;2023-04-19T10:17:59;3.80;;;2.63;;
10094;SDS011;5086;50.830;7.102;2023-04-19T10:20:29;4.47;;;2.45;;
10094;SDS011;5086;50.830;7.102;2023-04-19T10:23:02;4.10;;;2.53;;
10094;SDS011;5086;50.830;7.102;2023-04-19T10:25:35;3.50;;;2.30;;
10094;SDS011;5086;50.830;7.102;2023-04-19T10:28:02;4.90;;;3.15;;
10094;SDS011;5086;50.830;7.102;2023-04-19T10:30:31;4.22;;;2.92;;
10094;SDS011;5086;50.830;7.102;2023-04-19T10:32:58;4.15;;;3.00;;
10094;SDS011;5086;50.830;7.102;2023-04-19T10:35:32;5.03;;;2.70;;
10094;SDS011;5086;50.830;7.102;2023-04-19T10:38:02;3.60;;;2.50;;
10094;SDS011;5086;50.830;7.102;2023-04-19T10:43:22;4.57;;;2.97;;
10094;SDS011;5086;50.830;7.102;2023-04-19T10:45:51;4.20;;;3.10;;
10094;SDS011;5086;50.830;7.102;2023-04-19T10:48:31;4.43;;;2.70;;
10094;SDS011;5086;50.830;7.102;2023-04-19T10:51:03;4.25;;;3.00;;
10094;SDS011;5086;50.830;7.102;2023-04-19T10:53:42;5.88;;;3.20;;
10094;SDS011;5086;50.830;7.102;2023-04-19T10:56:13;3.72;;;2.47;;
10094;SDS011;5086;50.830;7.102;2023-04-19T11:01:47;7.20;;;3.25;;
10094;SDS011;5086;50.830;7.102;2023-04-19T11:04:19;4.25;;;3.10;;
10094;SDS011;5086;50.830;7.102;2023-04-19T11:06:57;9.73;;;3.50;;
10094;SDS011;5086;50.830;7.102;2023-04-19T11:09:27;6.20;;;3.80;;
10094;SDS011;5086;50.830;7.102;2023-04-19T11:11:57;6.55;;;3.50;;
10094;SDS011;5086;50.830;7.102;2023-04-19T11:14:27;4.38;;;2.85;;
10094;SDS011;5086;50.830;7.102;2023-04-19T11:16:57;4.03;;;2.72;;
10094;SDS011;5086;50.830;7.102;2023-04-19T11:19:24;4.65;;;2.80;;
10094;SDS011;5086;50.830;7.102;2023-04-19T11:21:51;8.43;;;2.80;;
10094;SDS011;5086;50.830;7.102;2023-04-19T11:24:18;12.70;;;3.40;;
10094;SDS011;5086;50.830;7.102;2023-04-19T11:26:45;4.10;;;2.95;;
10094;SDS011;5086;50.830;7.102;2023-04-19T11:29:12;8.38;;;3.28;;
10094;SDS011;5086;50.830;7.102;2023-04-19T11:31:39;3.92;;;2.67;;
10094;SDS011;5086;50.830;7.102;2023-04-19T11:34:11;4.95;;;2.80;;
10094;SDS011;5086;50.830;7.102;2023-04-19T11:36:46;3.42;;;2.45;;
10094;SDS011;5086;50.830;7.102;2023-04-19T11:39:13;4.53;;;2.50;;
10094;SDS011;5086;50.830;7.102;2023-04-19T11:41:40;3.40;;;2.35;;
10094;SDS011;5086;50.830;7.102;2023-04-19T11:44:11;6.40;;;2.33;;
10094;SDS011;5086;50.830;7.102;2023-04-19T11:46:39;3.33;;;2.30;;
10094;SDS011;5086;50.830;7.102;2023-04-19T11:49:06;4.93;;;3.30;;
10094;SDS011;5086;50.830;7.102;2023-04-19T11:51:35;8.82;;;2.53;;
10094;SDS011;5086;50.830;7.102;2023-04-19T11:54:11;3.40;;;2.45;;
10094;SDS011;5086;50.830;7.102;2023-04-19T11:56:55;2.70;;;2.05;;
10094;SDS011;5086;50.830;7.102;2023-04-19T11:59:27;4.25;;;2.65;;
10094;SDS011;5086;50.830;7.102;2023-04-19T12:01:54;3.42;;;2.10;;
10094;SDS011;5086;50.830;7.102;2023-04-19T12:04:21;6.22;;;2.72;;
10094;SDS011;5086;50.830;7.102;2023-04-19T12:06:56;4.72;;;3.00;;
10094;SDS011;5086;50.830;7.102;2023-04-19T12:09:24;4.55;;;2.47;;
10094;SDS011;5086;50.830;7.102;2023-04-19T12:11:51;2.75;;;2.22;;
10094;SDS011;5086;50.830;7.102;2023-04-19T12:14:22;5.53;;;2.20;;
10094;SDS011;5086;50.830;7.102;2023-04-19T12:17:06;3.55;;;3.22;;
10094;SDS011;5086;50.830;7.102;2023-04-19T12:19:34;5.32;;;2.58;;
10094;SDS011;5086;50.830;7.102;2023-04-19T12:22:11;3.83;;;2.20;;
10094;SDS011;5086;50.830;7.102;2023-04-19T12:24:39;3.47;;;2.25;;
10094;SDS011;5086;50.830;7.102;2023-04-19T12:27:07;3.35;;;1.63;;
10094;SDS011;5086;50.830;7.102;2023-04-19T12:29:35;4.82;;;2.10;;
10094;SDS011;5086;50.830;7.102;2023-04-19T12:32:02;2.00;;;1.80;;
10094;SDS011;5086;50.830;7.102;2023-04-19T12:34:29;2.55;;;1.60;;
10094;SDS011;5086;50.830;7.102;2023-04-19T12:36:56;2.13;;;1.67;;
10094;SDS011;5086;50.830;7.102;2023-04-19T12:39:25;1.60;;;1.50;;
10094;SDS011;5086;50.830;7.102;2023-04-19T12:41:52;4.20;;;1.80;;
10094;SDS011;5086;50.830;7.102;2023-04-19T12:44:19;1.77;;;1.50;;
10094;SDS011;5086;50.830;7.102;2023-04-19T12:46:46;4.70;;;2.17;;
10094;SDS011;5086;50.830;7.102;2023-04-19T12:49:13;2.13;;;1.30;;
10094;SDS011;5086;50.830;7.102;2023-04-19T12:51:40;1.60;;;1.50;;
10094;SDS011;5086;50.830;7.102;2023-04-19T12:54:07;1.52;;;1.42;;
10094;SDS011;5086;50.830;7.102;2023-04-19T12:56:35;2.20;;;1.63;;
10094;SDS011;5086;50.830;7.102;2023-04-19T12:59:02;1.95;;;1.60;;
10094;SDS011;5086;50.830;7.102;2023-04-19T13:01:30;1.63;;;1.52;;
10094;SDS011;5086;50.830;7.102;2023-04-19T13:03:57;2.28;;;1.42;;
10094;SDS011;5086;50.830;7.102;2023-04-19T13:06:24;1.70;;;1.60;;
10094;SDS011;5086;50.830;7.102;2023-04-19T13:08:51;2.33;;;1.20;;
10094;SDS011;5086;50.830;7.102;2023-04-19T13:11:18;2.75;;;1.33;;
10094;SDS011;5086;50.830;7.102;2023-04-19T13:13:49;1.55;;;1.25;;
10094;SDS011;5086;50.830;7.102;2023-04-19T13:16:17;2.50;;;1.70;;
10094;SDS011;5086;50.830;7.102;2023-04-19T13:18:44;7.95;;;2.05;;
10094;SDS011;5086;50.830;7.102;2023-04-19T13:21:11;2.38;;;1.90;;
10094;SDS011;5086;50.830;7.102;2023-04-19T13:23:37;7.70;;;1.70;;
10094;SDS011;5086;50.830;7.102;2023-04-19T13:26:05;14.63;;;3.08;;
10094;SDS011;5086;50.830;7.102;2023-04-19T13:28:35;2.30;;;1.65;;
10094;SDS011;5086;50.830;7.102;2023-04-19T13:31:04;5.20;;;2.08;;
10094;SDS011;5086;50.830;7.102;2023-04-19T13:33:30;2.10;;;1.85;;
10094;SDS011;5086;50.830;7.102;2023-04-19T13:35:57;3.88;;;2.20;;
10094;SDS011;5086;50.830;7.102;2023-04-19T13:38:24;3.08;;;2.08;;
10094;SDS011;5086;50.830;7.102;2023-04-19T13:40:51;3.22;;;1.88;;
10094;SDS011;5086;50.830;7.102;2023-04-19T13:43:18;2.92;;;2.10;;
10094;SDS011;5086;50.830;7.102;2023-04-19T13:45:45;5.13;;;1.92;;
10094;SDS011;5086;50.830;7.102;2023-04-19T13:48:13;6.63;;;2.47;;
10094;SDS011;5086;50.830;7.102;2023-04-19T13:50:41;3.20;;;1.52;;
10094;SDS011;5086;50.830;7.102;2023-04-19T13:53:08;3.67;;;2.05;;
10094;SDS011;5086;50.830;7.102;2023-04-19T13:55:35;5.35;;;2.53;;
10094;SDS011;5086;50.830;7.102;2023-04-19T13:58:02;4.75;;;2.05;;
10094;SDS011;5086;50.830;7.102;2023-04-19T14:00:29;5.10;;;2.10;;
10094;SDS011;5086;50.830;7.102;2023-04-19T14:02:55;3.92;;;2.20;;
10094;SDS011;5086;50.830;7.102;2023-04-19T14:05:23;3.45;;;2.10;;
10094;SDS011;5086;50.830;7.102;2023-04-19T14:07:50;4.13;;;2.33;;
10094;SDS011;5086;50.830;7.102;2023-04-19T14:10:17;3.70;;;2.50;;
10094;SDS011;5086;50.830;7.102;2023-04-19T14:12:45;6.03;;;2.38;;
10094;SDS011;5086;50.830;7.102;2023-04-19T14:15:13;8.82;;;2.42;;
10094;SDS011;5086;50.830;7.102;2023-04-19T14:17:40;4.72;;;2.80;;
10094;SDS011;5086;50.830;7.102;2023-04-19T14:20:07;5.22;;;2.90;;
10094;SDS011;5086;50.830;7.102;2023-04-19T14:22:36;6.15;;;2.30;;
10094;SDS011;5086;50.830;7.102;2023-04-19T14:25:04;5.00;;;2.50;;
10094;SDS011;5086;50.830;7.102;2023-04-19T14:27:31;2.30;;;2.10;;
10094;SDS011;5086;50.830;7.102;2023-04-19T14:29:58;3.58;;;2.38;;
10094;SDS011;5086;50.830;7.102;2023-04-19T14:32:25;4.80;;;2.92;;
10094;SDS011;5086;50.830;7.102;2023-04-19T14:34:52;3.97;;;2.47;;
10094;SDS011;5086;50.830;7.102;2023-04-19T14:37:20;3.88;;;2.40;;
10094;SDS011;5086;50.830;7.102;2023-04-19T14:39:49;3.38;;;2.53;;
10094;SDS011;5086;50.830;7.102;2023-04-19T14:42:16;2.45;;;1.95;;
10094;SDS011;5086;50.830;7.102;2023-04-19T14:44:43;4.88;;;2.83;;
10094;SDS011;5086;50.830;7.102;2023-04-19T14:47:11;3.30;;;2.20;;
10094;SDS011;5086;50.830;7.102;2023-04-19T14:49:39;2.85;;;2.22;;
10094;SDS011;5086;50.830;7.102;2023-04-19T14:52:06;4.88;;;2.20;;
10094;SDS011;5086;50.830;7.102;2023-04-19T14:54:33;2.55;;;1.90;;
10094;SDS011;5086;50.830;7.102;2023-04-19T14:57:01;2.95;;;2.35;;
10094;SDS011;5086;50.830;7.102;2023-04-19T14:59:28;4.85;;;2.05;;
10094;SDS011;5086;50.830;7.102;2023-04-19T15:01:55;3.90;;;2.25;;
10094;SDS011;5086;50.830;7.102;2023-04-19T15:04:21;3.15;;;2.20;;
10094;SDS011;5086;50.830;7.102;2023-04-19T15:06:48;5.13;;;2.67;;
10094;SDS011;5086;50.830;7.102;2023-04-19T15:09:15;4.38;;;2.55;;